Terminal Aerodrome Forecast
Issued by NWS Shreveport, LA

Home | Current Version | Previous Version | Text Only | Print | Product List | Glossary On
Versions: 1 2 3 4 5 6 7 8 9 10 11 12 13 14 15 16 17 18 19 20 21 22 23 24 25
000
FTUS44 KSHV 250500
TAFELD
TAF
KELD 250520Z 2506/2606 30004KT P6SM SKC
     FM251000 VRB04KT P6SM SCT250
     FM251500 36007KT P6SM FEW250
     FM252100 11007KT P6SM FEW250
     FM260100 VRB04KT P6SM FEW250=

USA.gov is the U.S. government's official web portal to all federal, state and local government web resources and services.